Flight Track Log - Related Links

Times and Time Zones

All times are in EDT time to prevent confusion due to time zone crossing. See the AWI3551 flight status page for this flight to view local times or setup timezone preferences in your user account.

Time Position Orientation Groundspeed Altitude Reporting Facility
EDT Latitude Longitude Course Direction KTS MPH feet Rate Location/Type
Mon 05:40:05 AM 42.9333 -78.7500 174° South 152 175 1,500  Level Buffalo TRACON
Mon 05:41:46 AM 42.8336 -78.7683 188° South 243 280 4,400 1,752 Climbing Cleveland Center
Mon 05:42:00 AM 42.6114 -78.6823 172° South  Level FlightAware Approximate
Mon 05:42:46 AM 42.7606 -78.7536 172° South 255 293 6,200  Level Cleveland Center
Mon 05:43:00 AM 42.5179 -78.6641 173° South  Level FlightAware Approximate
Mon 05:43:47 AM 42.6956 -78.7414 172° South 262 302 8,500  Level Cleveland Center
Mon 05:44:00 AM 42.4240 -78.6500 180° South  Level FlightAware Approximate
Mon 05:44:46 AM 42.6100 -78.7214 170° South 274 315 10,300  Level Cleveland Center
Mon 05:45:00 AM 42.3298 -78.6447 174° South  Level FlightAware Approximate
Mon 05:45:46 AM 42.5261 -78.7039 171° South 279 321 11,700  Level Cleveland Center
Mon 05:46:46 AM 42.4364 -78.6869 172° South 308 354 13,600 1,600 Climbing Cleveland Center
Mon 05:47:46 AM 42.3381 -78.6675 172° South 335 386 14,900 1,900 Climbing Cleveland Center
Mon 05:48:46 AM 42.2397 -78.6508 173° South 358 412 17,400 2,300 Climbing Cleveland Center
Mon 05:49:46 AM 42.1581 -78.6281 168° South 349 402 19,500 1,537 Climbing Cleveland Center
Mon 05:50:47 AM 42.0706 -78.6253 179° South 330 380 20,500 750 Climbing Cleveland Center
Mon 05:51:46 AM 41.9767 -78.6253 180° South 330 380 21,000 252 Climbing Cleveland Center
Mon 05:52:46 AM 41.8683 -78.6231 179° South 355 409 21,000 900 Level Cleveland Center
Mon 05:53:46 AM 41.7617 -78.6039 172° South 378 435 22,800 1,934 Climbing Cleveland Center
Mon 05:54:47 AM 41.6750 -78.5428 152° Southeast 367 422 24,900 1,100 Climbing Cleveland Center
Mon 05:55:46 AM 41.5864 -78.4761 151° Southeast 362 417 25,000 31 Climbing Cleveland Center
Mon 05:58:03 AM 41.3789 -78.3253 151° Southeast 354 407 25,000  Level New York Center
Mon 05:59:03 AM 41.2953 -78.2633 151° Southeast 354 407 25,000  Level New York Center
Mon 06:00:03 AM 41.2075 -78.2011 152° Southeast 354 407 25,000  Level New York Center
Mon 06:01:04 AM 41.1197 -78.1392 152° Southeast 354 407 25,000  Level New York Center
Mon 06:02:04 AM 41.0342 -78.0747 150° Southeast 354 407 25,000  Level New York Center
Mon 06:03:03 AM 40.9461 -78.0158 153° Southeast 354 407 25,000 -400 Level New York Center
Mon 06:04:04 AM 40.8722 -77.9283 138° Southeast 354 407 24,200 -800 Descending New York Center
Mon 06:05:03 AM 40.8036 -77.8197 130° Southeast 370 426 23,400 -800 Descending New York Center
Mon 06:06:04 AM 40.7347 -77.7169 131° Southeast 370 426 22,600 -800 Descending New York Center
Mon 06:07:03 AM 40.6675 -77.6169 132° Southeast 370 426 21,800 -857 Descending New York Center
Mon 06:08:03 AM 40.6042 -77.5206 131° Southeast 364 419 20,900 -942 Descending New York Center
Mon 06:09:04 AM 40.5522 -77.4061 121° Southeast 364 419 19,900 -1,041 Descending New York Center
Mon 06:10:04 AM 40.5031 -77.2811 117° Southeast 375 432 18,800 -950 Descending New York Center
Mon 06:11:04 AM 40.4556 -77.1567 117° Southeast 385 443 18,000 -400 Descending New York Center
Mon 06:12:04 AM 40.4119 -77.0381 116° Southeast 373 429 18,000  Level New York Center
Mon 06:13:03 AM 40.3697 -76.9306 117° Southeast 363 418 18,000 -492 Level New York Center
Mon 06:14:06 AM 40.3200 -76.8011 117° Southeast 363 418 17,000 -1,150 Descending New York Center
Mon 06:15:03 AM 40.2756 -76.6911 118° Southeast 358 412 15,700 -1,322 Descending New York Center
Mon 06:16:04 AM 40.2331 -76.5814 117° Southeast 348 400 14,400 -1,240 Descending New York Center
Mon 06:17:04 AM 40.1942 -76.4831 117° Southeast 337 388 13,200 -1,050 Descending New York Center
Mon 06:18:04 AM 40.1553 -76.3792 116° Southeast 330 380 12,300 -908 Descending New York Center
Mon 06:19:03 AM 40.1208 -76.2678 112° Southeast 308 354 11,400 -857 Descending New York Center
Mon 06:20:03 AM 40.1117 -76.1531 96° East 308 354 10,600 -744 Descending New York Center
Mon 06:21:04 AM 40.1036 -76.0547 96° East 308 354 9,900 -744 Descending New York Center
Mon 06:22:04 AM 40.0978 -75.9483 94° East 303 349 9,100 -857 Descending New York Center
Mon 06:23:03 AM 40.0864 -75.8308 97° East 298 343 8,200 -496 Descending New York Center
Mon 06:24:05 AM 40.0783 -75.7244 96° East 293 337 8,100 -50 Descending New York Center
Mon 06:25:03 AM 40.0739 -75.6292 93° East 274 315 8,100  Level New York Center
Mon 06:26:03 AM 40.0694 -75.5367 94° East 262 302 8,100  Level New York Center
Mon 06:27:03 AM 40.0933 -75.4569 69° East 231 266 8,100  Level New York Center
Mon 06:28:03 AM 40.1133 -75.3769 72° East 231 266 8,100  Level New York Center
Mon 06:29:03 AM 40.1328 -75.3047 71° East 231 266 8,100 -98 Level New York Center
Mon 06:30:05 AM 40.1081 -75.2436 118° Southeast 199 229 7,900 -446 Descending New York Center
Mon 06:31:04 AM 40.0439 -75.2286 170° South 172 198 7,200 -655 Descending New York Center
Mon 06:32:04 AM 39.9900 -75.2197 173° South 209 241 6,600 -467 Descending New York Center
Mon 06:32:34 AM 39.9667 -75.1833 130° Southeast 220 253 6,500 -286 Descending Philadelphia TRACON
Mon 06:33:28 AM 39.9833 -75.1000 75° East 221 254 6,200 -263 Descending Philadelphia TRACON
Mon 06:34:28 AM 40.0000 -75.0333 72° East 198 228 6,000 -300 Descending Philadelphia TRACON
Mon 06:35:28 AM 40.0167 -74.9667 72° East 214 246 5,600 -300 Descending Philadelphia TRACON
Mon 06:36:28 AM 40.0167 -74.9000 90° East 197 227 5,400 -250 Descending Philadelphia TRACON
Mon 06:37:28 AM 39.9833 -74.8500 131° Southeast 212 244 5,100 -409 Descending Philadelphia TRACON
Mon 06:38:40 AM 39.9333 -74.9000 217° Southwest 172 198 4,500 -450 Descending Philadelphia TRACON
Mon 06:39:28 AM 39.9333 -74.9500 270° West 175 201 4,200 -700 Descending Philadelphia TRACON
Mon 06:40:40 AM 39.9167 -75.0167 252° West 175 201 3,100 -917 Descending Philadelphia TRACON

Login

Don't have an account? Register now (free) for customized features, flight alerts, and more!